Terminal Aerodrome Forecast
Issued by NWS

Home | Current Version | Previous Version | Text Only | Print | Product List | Glossary On
Versions: 1 2 3 4 5 6 7 8 9 10 11 12 13 14 15 16 17
000
FTUS43 KIND 232300
TAFLAF
TAF
KLAF 232323Z 2400/2424 09003KT P6SM FEW250
      TEMPO 2409/2413 4SM BR
     FM241600 10007KT P6SM BKN250
      AMD LTD TO CLD VIS AND WIND 2401/2413=

USA.gov is the U.S. government's official web portal to all federal, state and local government web resources and services.